PWSweather.com
Personal Weather Stations
Station Observations
WATERF01
WaterfordIE

WaterfordIE

Lat: 52.2412507, Lon: -7.1414691

Elevation: 65

Station Type: Davis Vantage Vue

www.waterfordweather.com

High Low Average
Temperature 71.4°F21.9°C 58.2°F14.6°C 64.1°F17.8°C
Dew Point 60.1°F15.6°C 54.0°F12.2°C 56.9°F13.8°C
Winds 9.2 mph 14.8 kmh Calm Calm 3.0 mph WSW4.8 kmh WSW
Wind Gusts 13.8 mph22.2 kmh -- 4.0 mph6.4 kmh
Humidity 88% 63% 78%
Pressure 30.28 in1025.4 mb 30.06 in1017.9 mb -
Precipitation 0.00 in0.0 mm - -
Hour Temp Dew Point Humidity Winds Wind Gusts Pressure Precip Precip Rate Daily Precip Total
12:00 AM 59.5°F15.3°C 55.6°F13.1°C 87% Calm Calm -- 30.28 in1025.4 mb - 0.00 in0.0 mm 0.00 in0.0 mm
12:10 AM 59.5°F15.3°C 55.6°F13.1°C 87% Calm Calm -- 30.28 in1025.4 mb - 0.00 in0.0 mm 0.00 in0.0 mm
12:20 AM 59.5°F15.3°C 55.6°F13.1°C 87% Calm Calm -- 30.28 in1025.4 mb - 0.00 in0.0 mm 0.00 in0.0 mm
12:30 AM 59.6°F15.3°C 55.7°F13.2°C 87% Calm Calm -- 30.28 in1025.4 mb - 0.00 in0.0 mm 0.00 in0.0 mm
12:40 AM 59.5°F15.3°C 55.6°F13.1°C 87% Calm Calm -- 30.27 in1025.1 mb - 0.00 in0.0 mm 0.00 in0.0 mm
12:50 AM 59.5°F15.3°C 55.6°F13.1°C 87% Calm Calm -- 30.27 in1025.1 mb - 0.00 in0.0 mm 0.00 in0.0 mm
01:00 AM 59.5°F15.3°C 55.6°F13.1°C 87% Calm Calm -- 30.27 in1025.1 mb - 0.00 in0.0 mm 0.00 in0.0 mm
01:10 AM 59.4°F15.2°C 55.5°F13.1°C 87% Calm Calm -- 30.26 in1024.7 mb - 0.00 in0.0 mm 0.00 in0.0 mm
01:20 AM 59.4°F15.2°C 55.8°F13.2°C 88% Calm Calm -- 30.26 in1024.7 mb - 0.00 in0.0 mm 0.00 in0.0 mm
01:30 AM 59.4°F15.2°C 55.8°F13.2°C 88% Calm Calm -- 30.26 in1024.7 mb - 0.00 in0.0 mm 0.00 in0.0 mm
01:40 AM 59.5°F15.3°C 55.9°F13.3°C 88% Calm Calm -- 30.26 in1024.7 mb - 0.00 in0.0 mm 0.00 in0.0 mm
01:50 AM 59.6°F15.3°C 56.0°F13.3°C 88% Calm Calm -- 30.26 in1024.7 mb - 0.00 in0.0 mm 0.00 in0.0 mm
02:00 AM 59.6°F15.3°C 56.0°F13.3°C 88% Calm Calm -- 30.26 in1024.7 mb - 0.00 in0.0 mm 0.00 in0.0 mm
02:10 AM 59.5°F15.3°C 55.6°F13.1°C 87% Calm Calm -- 30.26 in1024.7 mb - 0.00 in0.0 mm 0.00 in0.0 mm
02:20 AM 59.5°F15.3°C 55.6°F13.1°C 87% Calm Calm -- 30.25 in1024.4 mb - 0.00 in0.0 mm 0.00 in0.0 mm
02:30 AM 59.5°F15.3°C 55.6°F13.1°C 87% Calm Calm 2.3 mph3.7 kmh 30.26 in1024.7 mb - 0.00 in0.0 mm 0.00 in0.0 mm
02:40 AM 59.5°F15.3°C 55.7°F13.2°C 87% 1.2 mph NNW1.9 kmh NNW 2.3 mph3.7 kmh 30.26 in1024.7 mb - 0.00 in0.0 mm 0.00 in0.0 mm
02:50 AM 59.6°F15.3°C 55.7°F13.2°C 87% Calm Calm -- 30.25 in1024.4 mb - 0.00 in0.0 mm 0.00 in0.0 mm
03:00 AM 59.5°F15.3°C 55.6°F13.1°C 87% Calm Calm -- 30.25 in1024.4 mb - 0.00 in0.0 mm 0.00 in0.0 mm
03:10 AM 59.2°F15.1°C 55.3°F12.9°C 87% Calm Calm -- 30.24 in1024.0 mb - 0.00 in0.0 mm 0.00 in0.0 mm
03:20 AM 59.1°F15.1°C 55.2°F12.9°C 87% Calm Calm -- 30.24 in1024.0 mb - 0.00 in0.0 mm 0.00 in0.0 mm
03:30 AM 59.1°F15.1°C 55.5°F13.1°C 88% Calm Calm -- 30.24 in1024.0 mb - 0.00 in0.0 mm 0.00 in0.0 mm
03:40 AM 58.9°F14.9°C 55.4°F13.0°C 88% Calm Calm -- 30.24 in1024.0 mb - 0.00 in0.0 mm 0.00 in0.0 mm
03:50 AM 59.3°F15.2°C 55.7°F13.2°C 88% Calm Calm -- 30.24 in1024.0 mb - 0.00 in0.0 mm 0.00 in0.0 mm
04:00 AM 59.4°F15.2°C 55.5°F13.1°C 87% Calm Calm -- 30.24 in1024.0 mb - 0.00 in0.0 mm 0.00 in0.0 mm
04:10 AM 59.4°F15.2°C 55.5°F13.1°C 87% Calm Calm -- 30.24 in1024.0 mb - 0.00 in0.0 mm 0.00 in0.0 mm
04:20 AM 59.5°F15.3°C 55.6°F13.1°C 87% Calm Calm -- 30.24 in1024.0 mb - 0.00 in0.0 mm 0.00 in0.0 mm
04:30 AM 59.4°F15.2°C 55.5°F13.1°C 87% Calm Calm -- 30.24 in1024.0 mb - 0.00 in0.0 mm 0.00 in0.0 mm
04:40 AM 59.3°F15.2°C 55.4°F13.0°C 87% Calm Calm -- 30.23 in1023.7 mb - 0.00 in0.0 mm 0.00 in0.0 mm
04:50 AM 59.2°F15.1°C 55.3°F12.9°C 87% 2.3 mph NNW3.7 kmh NNW 2.3 mph3.7 kmh 30.24 in1024.0 mb - 0.00 in0.0 mm 0.00 in0.0 mm
05:00 AM 59.0°F15.0°C 55.1°F12.8°C 87% 2.3 mph NW3.7 kmh NW 5.8 mph9.3 kmh 30.24 in1024.0 mb - 0.00 in0.0 mm 0.00 in0.0 mm
05:10 AM 58.9°F14.9°C 55.0°F12.8°C 87% Calm Calm -- 30.24 in1024.0 mb - 0.00 in0.0 mm 0.00 in0.0 mm
05:20 AM 58.9°F14.9°C 55.0°F12.8°C 87% Calm Calm -- 30.23 in1023.7 mb - 0.00 in0.0 mm 0.00 in0.0 mm
05:30 AM 58.8°F14.9°C 54.9°F12.7°C 87% Calm Calm -- 30.24 in1024.0 mb - 0.00 in0.0 mm 0.00 in0.0 mm
05:40 AM 58.9°F14.9°C 54.7°F12.6°C 86% Calm Calm -- 30.23 in1023.7 mb - 0.00 in0.0 mm 0.00 in0.0 mm
05:50 AM 59.0°F15.0°C 54.8°F12.7°C 86% Calm Calm 2.3 mph3.7 kmh 30.23 in1023.7 mb - 0.00 in0.0 mm 0.00 in0.0 mm
06:00 AM 59.2°F15.1°C 55.0°F12.8°C 86% Calm Calm -- 30.23 in1023.7 mb - 0.00 in0.0 mm 0.00 in0.0 mm
06:10 AM 59.4°F15.2°C 55.2°F12.9°C 86% Calm Calm -- 30.23 in1023.7 mb - 0.00 in0.0 mm 0.00 in0.0 mm
06:20 AM 59.6°F15.3°C 55.4°F13.0°C 86% Calm Calm -- 30.23 in1023.7 mb - 0.00 in0.0 mm 0.00 in0.0 mm
06:30 AM 59.8°F15.4°C 55.6°F13.1°C 86% Calm Calm -- 30.23 in1023.7 mb - 0.00 in0.0 mm 0.00 in0.0 mm
06:40 AM 60.0°F15.6°C 55.8°F13.2°C 86% Calm Calm -- 30.23 in1023.7 mb - 0.00 in0.0 mm 0.00 in0.0 mm
06:50 AM 60.2°F15.7°C 56.0°F13.3°C 86% Calm Calm -- 30.23 in1023.7 mb - 0.00 in0.0 mm 0.00 in0.0 mm
07:00 AM 60.5°F15.8°C 56.3°F13.5°C 86% Calm Calm -- 30.23 in1023.7 mb - 0.00 in0.0 mm 0.00 in0.0 mm
07:10 AM 60.7°F15.9°C 56.2°F13.4°C 85% Calm Calm -- 30.23 in1023.7 mb - 0.00 in0.0 mm 0.00 in0.0 mm
07:20 AM 61.0°F16.1°C 56.5°F13.6°C 85% Calm Calm -- 30.23 in1023.7 mb - 0.00 in0.0 mm 0.00 in0.0 mm
07:30 AM 61.2°F16.2°C 56.7°F13.7°C 85% Calm Calm -- 30.23 in1023.7 mb - 0.00 in0.0 mm 0.00 in0.0 mm
07:40 AM 61.6°F16.4°C 56.7°F13.7°C 84% Calm Calm -- 30.23 in1023.7 mb - 0.00 in0.0 mm 0.00 in0.0 mm
07:50 AM 61.9°F16.6°C 57.0°F13.9°C 84% Calm Calm -- 30.23 in1023.7 mb - 0.00 in0.0 mm 0.00 in0.0 mm
08:00 AM 62.6°F17.0°C 57.7°F14.3°C 84% Calm Calm -- 30.23 in1023.7 mb - 0.00 in0.0 mm 0.00 in0.0 mm
08:10 AM 63.3°F17.4°C 58.4°F14.7°C 84% Calm Calm -- 30.22 in1023.4 mb - 0.00 in0.0 mm 0.00 in0.0 mm
08:20 AM 64.3°F17.9°C 59.0°F15.0°C 83% Calm Calm -- 30.22 in1023.4 mb - 0.00 in0.0 mm 0.00 in0.0 mm
08:30 AM 65.5°F18.6°C 59.1°F15.1°C 80% Calm Calm -- 30.22 in1023.4 mb - 0.00 in0.0 mm 0.00 in0.0 mm
08:40 AM 66.5°F19.2°C 59.0°F15.0°C 77% Calm Calm -- 30.22 in1023.4 mb - 0.00 in0.0 mm 0.00 in0.0 mm
08:50 AM 67.3°F19.6°C 58.7°F14.8°C 74% 2.3 mph SSW3.7 kmh SSW 2.3 mph3.7 kmh 30.22 in1023.4 mb - 0.00 in0.0 mm 0.00 in0.0 mm
09:00 AM 67.6°F19.8°C 58.6°F14.8°C 73% 4.6 mph SSW7.4 kmh SSW 6.9 mph11.1 kmh 30.22 in1023.4 mb - 0.00 in0.0 mm 0.00 in0.0 mm
09:10 AM 67.5°F19.7°C 58.9°F14.9°C 74% 4.6 mph SSE7.4 kmh SSE 5.8 mph9.3 kmh 30.21 in1023.0 mb - 0.00 in0.0 mm 0.00 in0.0 mm
09:20 AM 68.0°F20.0°C 59.0°F15.0°C 73% 5.8 mph SSW9.3 kmh SSW 8.1 mph13.0 kmh 30.21 in1023.0 mb - 0.00 in0.0 mm 0.00 in0.0 mm
09:30 AM 68.7°F20.4°C 59.3°F15.2°C 72% 3.5 mph SSE5.6 kmh SSE 6.9 mph11.1 kmh 30.21 in1023.0 mb - 0.00 in0.0 mm 0.00 in0.0 mm
09:40 AM 68.1°F20.1°C 58.0°F14.4°C 70% 6.9 mph SSE11.1 kmh SSE 11.5 mph18.5 kmh 30.20 in1022.7 mb - 0.00 in0.0 mm 0.00 in0.0 mm
09:50 AM 68.3°F20.2°C 58.1°F14.5°C 70% 9.2 mph S14.8 kmh S 12.7 mph20.4 kmh 30.20 in1022.7 mb - 0.00 in0.0 mm 0.00 in0.0 mm
10:00 AM 68.4°F20.2°C 58.6°F14.8°C 71% 4.6 mph SW7.4 kmh SW 8.1 mph13.0 kmh 30.20 in1022.7 mb - 0.00 in0.0 mm 0.00 in0.0 mm
10:10 AM 68.3°F20.2°C 58.1°F14.5°C 70% 9.2 mph S14.8 kmh S 11.5 mph18.5 kmh 30.20 in1022.7 mb - 0.00 in0.0 mm 0.00 in0.0 mm
10:20 AM 68.3°F20.2°C 58.1°F14.5°C 70% 8.1 mph S13.0 kmh S 12.7 mph20.4 kmh 30.20 in1022.7 mb - 0.00 in0.0 mm 0.00 in0.0 mm
10:30 AM 69.1°F20.6°C 58.1°F14.5°C 68% 5.8 mph SW9.3 kmh SW 8.1 mph13.0 kmh 30.20 in1022.7 mb - 0.00 in0.0 mm 0.00 in0.0 mm
10:40 AM 69.6°F20.9°C 58.5°F14.7°C 68% 5.8 mph SW9.3 kmh SW 9.2 mph14.8 kmh 30.20 in1022.7 mb - 0.00 in0.0 mm 0.00 in0.0 mm
10:50 AM 69.3°F20.7°C 57.9°F14.4°C 67% 5.8 mph WSW9.3 kmh WSW 9.2 mph14.8 kmh 30.20 in1022.7 mb - 0.00 in0.0 mm 0.00 in0.0 mm
11:00 AM 70.1°F21.2°C 58.6°F14.8°C 67% 8.1 mph WSW13.0 kmh WSW 12.7 mph20.4 kmh 30.20 in1022.7 mb - 0.00 in0.0 mm 0.00 in0.0 mm
11:10 AM 69.8°F21.0°C 58.4°F14.7°C 67% 4.6 mph SSW7.4 kmh SSW 11.5 mph18.5 kmh 30.20 in1022.7 mb - 0.00 in0.0 mm 0.00 in0.0 mm
11:20 AM 69.2°F20.7°C 58.6°F14.8°C 69% 6.9 mph SW11.1 kmh SW 8.1 mph13.0 kmh 30.20 in1022.7 mb - 0.00 in0.0 mm 0.00 in0.0 mm
11:30 AM 69.2°F20.7°C 59.4°F15.2°C 71% 6.9 mph SSW11.1 kmh SSW 11.5 mph18.5 kmh 30.19 in1022.4 mb - 0.00 in0.0 mm 0.00 in0.0 mm
11:40 AM 69.0°F20.6°C 59.2°F15.1°C 71% 8.1 mph SSW13.0 kmh SSW 8.1 mph13.0 kmh 30.19 in1022.4 mb - 0.00 in0.0 mm 0.00 in0.0 mm
11:50 AM 68.5°F20.3°C 59.5°F15.3°C 73% 4.6 mph SSW7.4 kmh SSW 11.5 mph18.5 kmh 30.19 in1022.4 mb - 0.00 in0.0 mm 0.00 in0.0 mm
12:00 PM 68.9°F20.5°C 59.9°F15.5°C 73% 3.5 mph SW5.6 kmh SW 8.1 mph13.0 kmh 30.19 in1022.4 mb - 0.00 in0.0 mm 0.00 in0.0 mm
12:10 PM 69.4°F20.8°C 59.6°F15.3°C 71% 5.8 mph SW9.3 kmh SW 9.2 mph14.8 kmh 30.19 in1022.4 mb - 0.00 in0.0 mm 0.00 in0.0 mm
12:20 PM 69.1°F20.6°C 59.3°F15.2°C 71% 5.8 mph S9.3 kmh S 8.1 mph13.0 kmh 30.19 in1022.4 mb - 0.00 in0.0 mm 0.00 in0.0 mm
12:30 PM 69.5°F20.8°C 59.3°F15.2°C 70% 6.9 mph WSW11.1 kmh WSW 8.1 mph13.0 kmh 30.18 in1022.0 mb - 0.00 in0.0 mm 0.00 in0.0 mm
12:40 PM 69.3°F20.7°C 59.0°F15.0°C 70% 8.1 mph SSW13.0 kmh SSW 11.5 mph18.5 kmh 30.18 in1022.0 mb - 0.00 in0.0 mm 0.00 in0.0 mm
12:50 PM 69.5°F20.8°C 59.7°F15.4°C 71% 4.6 mph W7.4 kmh W 11.5 mph18.5 kmh 30.18 in1022.0 mb - 0.00 in0.0 mm 0.00 in0.0 mm
01:00 PM 69.4°F20.8°C 59.2°F15.1°C 70% 6.9 mph SW11.1 kmh SW 12.7 mph20.4 kmh 30.18 in1022.0 mb - 0.00 in0.0 mm 0.00 in0.0 mm
01:10 PM 69.9°F21.1°C 59.7°F15.4°C 70% 4.6 mph S7.4 kmh S 5.8 mph9.3 kmh 30.17 in1021.7 mb - 0.00 in0.0 mm 0.00 in0.0 mm
01:20 PM 69.5°F20.8°C 59.3°F15.2°C 70% 6.9 mph WSW11.1 kmh WSW 8.1 mph13.0 kmh 30.17 in1021.7 mb - 0.00 in0.0 mm 0.00 in0.0 mm
01:30 PM 69.3°F20.7°C 59.1°F15.1°C 70% 5.8 mph WSW9.3 kmh WSW 9.2 mph14.8 kmh 30.17 in1021.7 mb - 0.00 in0.0 mm 0.00 in0.0 mm
01:40 PM 69.7°F20.9°C 58.7°F14.8°C 68% 9.2 mph SSW14.8 kmh SSW 11.5 mph18.5 kmh 30.16 in1021.3 mb - 0.00 in0.0 mm 0.00 in0.0 mm
01:50 PM 69.8°F21.0°C 59.2°F15.1°C 69% 4.6 mph NW7.4 kmh NW 9.2 mph14.8 kmh 30.16 in1021.3 mb - 0.00 in0.0 mm 0.00 in0.0 mm
02:00 PM 70.3°F21.3°C 60.1°F15.6°C 70% 4.6 mph WNW7.4 kmh WNW 6.9 mph11.1 kmh 30.16 in1021.3 mb - 0.00 in0.0 mm 0.00 in0.0 mm
02:10 PM 69.5°F20.8°C 58.9°F14.9°C 69% 6.9 mph W11.1 kmh W 9.2 mph14.8 kmh 30.16 in1021.3 mb - 0.00 in0.0 mm 0.00 in0.0 mm
02:20 PM 69.0°F20.6°C 59.2°F15.1°C 71% 3.5 mph WNW5.6 kmh WNW 9.2 mph14.8 kmh 30.16 in1021.3 mb - 0.00 in0.0 mm 0.00 in0.0 mm
02:30 PM 69.2°F20.7°C 59.8°F15.4°C 72% 4.6 mph WSW7.4 kmh WSW 8.1 mph13.0 kmh 30.15 in1021.0 mb - 0.00 in0.0 mm 0.00 in0.0 mm
02:40 PM 69.9°F21.1°C 60.0°F15.6°C 71% 3.5 mph SW5.6 kmh SW 8.1 mph13.0 kmh 30.15 in1021.0 mb - 0.00 in0.0 mm 0.00 in0.0 mm
02:50 PM 69.0°F20.6°C 58.8°F14.9°C 70% 3.5 mph WNW5.6 kmh WNW 8.1 mph13.0 kmh 30.15 in1021.0 mb - 0.00 in0.0 mm 0.00 in0.0 mm
03:00 PM 68.9°F20.5°C 59.1°F15.1°C 71% 3.5 mph WSW5.6 kmh WSW 11.5 mph18.5 kmh 30.15 in1021.0 mb - 0.00 in0.0 mm 0.00 in0.0 mm
03:10 PM 69.3°F20.7°C 59.5°F15.3°C 71% 2.3 mph NE3.7 kmh NE 9.2 mph14.8 kmh 30.14 in1020.7 mb - 0.00 in0.0 mm 0.00 in0.0 mm
03:20 PM 70.1°F21.2°C 59.1°F15.1°C 68% 3.5 mph NW5.6 kmh NW 5.8 mph9.3 kmh 30.14 in1020.7 mb - 0.00 in0.0 mm 0.00 in0.0 mm
03:30 PM 70.0°F21.1°C 59.0°F15.0°C 68% 4.6 mph WSW7.4 kmh WSW 6.9 mph11.1 kmh 30.14 in1020.7 mb - 0.00 in0.0 mm 0.00 in0.0 mm
03:40 PM 69.9°F21.1°C 58.9°F14.9°C 68% 6.9 mph SW11.1 kmh SW 11.5 mph18.5 kmh 30.13 in1020.3 mb - 0.00 in0.0 mm 0.00 in0.0 mm
03:50 PM 70.0°F21.1°C 58.9°F14.9°C 68% 5.8 mph WSW9.3 kmh WSW 9.2 mph14.8 kmh 30.13 in1020.3 mb - 0.00 in0.0 mm 0.00 in0.0 mm
04:00 PM 70.9°F21.6°C 59.0°F15.0°C 66% 4.6 mph SW7.4 kmh SW 8.1 mph13.0 kmh 30.12 in1020.0 mb - 0.00 in0.0 mm 0.00 in0.0 mm
04:10 PM 71.3°F21.8°C 59.0°F15.0°C 65% 5.8 mph SW9.3 kmh SW 11.5 mph18.5 kmh 30.12 in1020.0 mb - 0.00 in0.0 mm 0.00 in0.0 mm
04:20 PM 71.4°F21.9°C 59.0°F15.0°C 65% 5.8 mph NNW9.3 kmh NNW 8.1 mph13.0 kmh 30.12 in1020.0 mb - 0.00 in0.0 mm 0.00 in0.0 mm
04:30 PM 70.8°F21.6°C 58.5°F14.7°C 65% 5.8 mph SW9.3 kmh SW 8.1 mph13.0 kmh 30.11 in1019.6 mb - 0.00 in0.0 mm 0.00 in0.0 mm
04:40 PM 70.4°F21.3°C 58.5°F14.7°C 66% 5.8 mph W9.3 kmh W 13.8 mph22.2 kmh 30.11 in1019.6 mb - 0.00 in0.0 mm 0.00 in0.0 mm
04:50 PM 70.6°F21.4°C 58.2°F14.6°C 65% 6.9 mph WSW11.1 kmh WSW 11.5 mph18.5 kmh 30.11 in1019.6 mb - 0.00 in0.0 mm 0.00 in0.0 mm
05:00 PM 70.4°F21.3°C 57.2°F14.0°C 63% 6.9 mph WSW11.1 kmh WSW 11.5 mph18.5 kmh 30.11 in1019.6 mb - 0.00 in0.0 mm 0.00 in0.0 mm
05:10 PM 69.6°F20.9°C 57.3°F14.1°C 65% 4.6 mph W7.4 kmh W 11.5 mph18.5 kmh 30.11 in1019.6 mb - 0.00 in0.0 mm 0.00 in0.0 mm
05:20 PM 69.6°F20.9°C 57.3°F14.1°C 65% 6.9 mph WNW11.1 kmh WNW 11.5 mph18.5 kmh 30.11 in1019.6 mb - 0.00 in0.0 mm 0.00 in0.0 mm
05:30 PM 69.2°F20.7°C 56.9°F13.8°C 65% 5.8 mph WSW9.3 kmh WSW 11.5 mph18.5 kmh 30.10 in1019.3 mb - 0.00 in0.0 mm 0.00 in0.0 mm
05:40 PM 69.0°F20.6°C 57.2°F14.0°C 66% 3.5 mph W5.6 kmh W 8.1 mph13.0 kmh 30.10 in1019.3 mb - 0.00 in0.0 mm 0.00 in0.0 mm
05:50 PM 68.9°F20.5°C 56.7°F13.7°C 65% 5.8 mph NW9.3 kmh NW 8.1 mph13.0 kmh 30.10 in1019.3 mb - 0.00 in0.0 mm 0.00 in0.0 mm
06:00 PM 68.9°F20.5°C 56.7°F13.7°C 65% 4.6 mph N7.4 kmh N 8.1 mph13.0 kmh 30.09 in1019.0 mb - 0.00 in0.0 mm 0.00 in0.0 mm
06:10 PM 68.7°F20.4°C 56.5°F13.6°C 65% 5.8 mph WSW9.3 kmh WSW 11.5 mph18.5 kmh 30.09 in1019.0 mb - 0.00 in0.0 mm 0.00 in0.0 mm
06:20 PM 68.3°F20.2°C 56.5°F13.6°C 66% 8.1 mph WSW13.0 kmh WSW 11.5 mph18.5 kmh 30.09 in1019.0 mb - 0.00 in0.0 mm 0.00 in0.0 mm
06:30 PM 67.7°F19.8°C 56.8°F13.8°C 68% 6.9 mph SW11.1 kmh SW 11.5 mph18.5 kmh 30.09 in1019.0 mb - 0.00 in0.0 mm 0.00 in0.0 mm
06:40 PM 67.3°F19.6°C 56.8°F13.8°C 69% 4.6 mph W7.4 kmh W 8.1 mph13.0 kmh 30.09 in1019.0 mb - 0.00 in0.0 mm 0.00 in0.0 mm
06:50 PM 66.8°F19.3°C 57.1°F13.9°C 71% 3.5 mph NW5.6 kmh NW 5.8 mph9.3 kmh 30.09 in1019.0 mb - 0.00 in0.0 mm 0.00 in0.0 mm
07:00 PM 66.7°F19.3°C 57.4°F14.1°C 72% 4.6 mph SW7.4 kmh SW 8.1 mph13.0 kmh 30.09 in1019.0 mb - 0.00 in0.0 mm 0.00 in0.0 mm
07:10 PM 66.3°F19.1°C 57.4°F14.1°C 73% 3.5 mph SSW5.6 kmh SSW 5.8 mph9.3 kmh 30.09 in1019.0 mb - 0.00 in0.0 mm 0.00 in0.0 mm
07:20 PM 66.0°F18.9°C 57.5°F14.2°C 74% 3.5 mph WNW5.6 kmh WNW 8.1 mph13.0 kmh 30.09 in1019.0 mb - 0.00 in0.0 mm 0.00 in0.0 mm
07:30 PM 65.5°F18.6°C 57.3°F14.1°C 75% 4.6 mph WSW7.4 kmh WSW 8.1 mph13.0 kmh 30.09 in1019.0 mb - 0.00 in0.0 mm 0.00 in0.0 mm
07:40 PM 64.6°F18.1°C 56.8°F13.8°C 76% 3.5 mph SSW5.6 kmh SSW 5.8 mph9.3 kmh 30.08 in1018.6 mb - 0.00 in0.0 mm 0.00 in0.0 mm
07:50 PM 63.4°F17.4°C 56.8°F13.8°C 79% 2.3 mph WSW3.7 kmh WSW 4.6 mph7.4 kmh 30.08 in1018.6 mb - 0.00 in0.0 mm 0.00 in0.0 mm
08:00 PM 62.4°F16.9°C 56.2°F13.4°C 80% 3.5 mph W5.6 kmh W 5.8 mph9.3 kmh 30.08 in1018.6 mb - 0.00 in0.0 mm 0.00 in0.0 mm
08:10 PM 61.6°F16.4°C 55.7°F13.2°C 81% 1.2 mph W1.9 kmh W 5.8 mph9.3 kmh 30.08 in1018.6 mb - 0.00 in0.0 mm 0.00 in0.0 mm
08:20 PM 60.8°F16.0°C 55.3°F12.9°C 82% Calm Calm -- 30.08 in1018.6 mb - 0.00 in0.0 mm 0.00 in0.0 mm
08:30 PM 60.3°F15.7°C 55.1°F12.8°C 83% 1.2 mph SSW1.9 kmh SSW 2.3 mph3.7 kmh 30.08 in1018.6 mb - 0.00 in0.0 mm 0.00 in0.0 mm
08:40 PM 59.9°F15.5°C 55.1°F12.8°C 84% Calm Calm -- 30.08 in1018.6 mb - 0.00 in0.0 mm 0.00 in0.0 mm
08:50 PM 59.7°F15.4°C 54.8°F12.7°C 84% Calm Calm -- 30.08 in1018.6 mb - 0.00 in0.0 mm 0.00 in0.0 mm
09:00 PM 59.4°F15.2°C 54.6°F12.6°C 84% Calm Calm -- 30.08 in1018.6 mb - 0.00 in0.0 mm 0.00 in0.0 mm
09:10 PM 59.1°F15.1°C 54.6°F12.6°C 85% Calm Calm -- 30.08 in1018.6 mb - 0.00 in0.0 mm 0.00 in0.0 mm
09:20 PM 59.1°F15.1°C 54.6°F12.6°C 85% Calm Calm -- 30.08 in1018.6 mb - 0.00 in0.0 mm 0.00 in0.0 mm
09:30 PM 59.3°F15.2°C 54.8°F12.7°C 85% Calm Calm 1.2 mph1.9 kmh 30.08 in1018.6 mb - 0.00 in0.0 mm 0.00 in0.0 mm
09:40 PM 59.2°F15.1°C 54.7°F12.6°C 85% Calm Calm -- 30.08 in1018.6 mb - 0.00 in0.0 mm 0.00 in0.0 mm
09:50 PM 59.3°F15.2°C 55.1°F12.8°C 86% Calm Calm -- 30.07 in1018.3 mb - 0.00 in0.0 mm 0.00 in0.0 mm
10:00 PM 59.4°F15.2°C 55.2°F12.9°C 86% Calm Calm -- 30.07 in1018.3 mb - 0.00 in0.0 mm 0.00 in0.0 mm
10:10 PM 59.3°F15.2°C 55.1°F12.8°C 86% Calm Calm -- 30.07 in1018.3 mb - 0.00 in0.0 mm 0.00 in0.0 mm
10:20 PM 59.1°F15.1°C 54.9°F12.7°C 86% Calm Calm -- 30.07 in1018.3 mb - 0.00 in0.0 mm 0.00 in0.0 mm
10:30 PM 59.0°F15.0°C 54.8°F12.7°C 86% Calm Calm -- 30.07 in1018.3 mb - 0.00 in0.0 mm 0.00 in0.0 mm
10:40 PM 58.8°F14.9°C 54.6°F12.6°C 86% Calm Calm -- 30.07 in1018.3 mb - 0.00 in0.0 mm 0.00 in0.0 mm
10:50 PM 58.9°F14.9°C 54.7°F12.6°C 86% Calm Calm -- 30.07 in1018.3 mb - 0.00 in0.0 mm 0.00 in0.0 mm
11:00 PM 59.0°F15.0°C 54.8°F12.7°C 86% Calm Calm -- 30.07 in1018.3 mb - 0.00 in0.0 mm 0.00 in0.0 mm
11:10 PM 58.9°F14.9°C 54.7°F12.6°C 86% Calm Calm -- 30.06 in1017.9 mb - 0.00 in0.0 mm 0.00 in0.0 mm
11:20 PM 58.8°F14.9°C 54.6°F12.6°C 86% Calm Calm -- 30.06 in1017.9 mb - 0.00 in0.0 mm 0.00 in0.0 mm
11:30 PM 58.7°F14.8°C 54.5°F12.5°C 86% Calm Calm -- 30.06 in1017.9 mb - 0.00 in0.0 mm 0.00 in0.0 mm
11:40 PM 58.4°F14.7°C 54.2°F12.3°C 86% Calm Calm -- 30.06 in1017.9 mb - 0.00 in0.0 mm 0.00 in0.0 mm
11:50 PM 58.2°F14.6°C 54.0°F12.2°C 86% Calm Calm -- 30.06 in1017.9 mb - 0.00 in0.0 mm 0.00 in0.0 mm